createdAt,value
2018-09-04T00:00:40.965Z,20.70
2018-09-04T00:03:15.155Z,20.70
2018-09-04T00:05:49.831Z,21.00
2018-09-04T00:08:23.847Z,21.00
2018-09-04T00:10:57.881Z,20.80
2018-09-04T00:13:32.048Z,20.60
2018-09-04T00:16:06.062Z,20.60
2018-09-04T00:18:39.993Z,20.60
2018-09-04T00:21:14.723Z,20.70
2018-09-04T00:23:48.829Z,20.60
2018-09-04T00:26:22.901Z,20.60
2018-09-04T00:28:56.973Z,20.60
2018-09-04T00:31:31.038Z,20.70
2018-09-04T00:34:05.006Z,20.40
2018-09-04T00:36:39.094Z,20.30
2018-09-04T00:39:13.049Z,20.10
2018-09-04T00:41:47.126Z,19.80
2018-09-04T00:44:21.023Z,19.80
2018-09-04T00:46:55.170Z,19.90
2018-09-04T00:49:29.337Z,19.80
2018-09-04T00:52:03.467Z,19.90
2018-09-04T00:54:37.437Z,19.90
2018-09-04T00:57:11.453Z,19.70
2018-09-04T00:59:46.190Z,19.90
2018-09-04T01:02:20.333Z,19.80
2018-09-04T01:04:54.423Z,19.90
2018-09-04T01:07:28.521Z,19.80
2018-09-04T01:10:02.664Z,19.80
2018-09-04T01:12:36.592Z,19.80
2018-09-04T01:15:10.634Z,20.00
2018-09-04T01:17:45.381Z,20.00
2018-09-04T01:20:20.266Z,19.90
2018-09-04T01:22:54.333Z,19.90
2018-09-04T01:25:29.076Z,19.70
2018-09-04T01:28:03.038Z,19.70
2018-09-04T01:30:37.018Z,19.70
2018-09-04T01:33:11.035Z,19.80
2018-09-04T01:35:45.756Z,19.70
2018-09-04T01:38:19.921Z,19.70
2018-09-04T01:40:54.074Z,19.90
2018-09-04T01:43:28.076Z,19.90
2018-09-04T01:46:02.168Z,19.70
2018-09-04T01:48:36.784Z,19.80
2018-09-04T01:51:10.897Z,19.80
2018-09-04T01:53:44.886Z,20.00
2018-09-04T01:56:18.908Z,19.70
2018-09-04T01:58:52.937Z,19.90
2018-09-04T02:01:27.063Z,20.00
2018-09-04T02:04:01.221Z,20.20
2018-09-04T02:06:35.286Z,20.20
2018-09-04T02:09:09.422Z,20.40
2018-09-04T02:11:44.253Z,20.50
2018-09-04T02:14:18.148Z,20.50
2018-09-04T02:16:52.966Z,20.40
2018-09-04T02:19:27.728Z,20.30
2018-09-04T02:22:01.825Z,20.30
2018-09-04T02:24:35.702Z,20.30
2018-09-04T02:27:09.770Z,20.20
2018-09-04T02:29:43.848Z,20.30
2018-09-04T02:32:17.892Z,20.40
2018-09-04T02:34:52.017Z,20.20
2018-09-04T02:37:26.063Z,20.00
2018-09-04T02:40:00.064Z,20.20
2018-09-04T02:42:34.060Z,20.20
2018-09-04T02:45:08.068Z,19.80
2018-09-04T02:47:42.829Z,19.50
2018-09-04T02:50:16.956Z,19.50
2018-09-04T02:52:53.054Z,19.50
2018-09-04T02:55:26.969Z,19.80
2018-09-04T02:58:01.670Z,20.10
2018-09-04T03:00:35.554Z,20.10
2018-09-04T03:03:09.509Z,20.00
2018-09-04T03:05:44.314Z,20.10
2018-09-04T03:08:18.214Z,20.00
2018-09-04T03:10:52.110Z,19.60
2018-09-04T03:13:26.067Z,19.50
2018-09-04T03:16:00.061Z,19.40
2018-09-04T03:18:34.181Z,19.30
2018-09-04T03:21:08.297Z,19.40
2018-09-04T03:23:42.209Z,19.50
2018-09-04T03:26:17.014Z,19.30
2018-09-04T03:28:50.887Z,19.30
2018-09-04T03:31:24.989Z,19.50
2018-09-04T03:33:59.095Z,19.50
2018-09-04T03:36:33.927Z,19.50
2018-09-04T03:39:08.020Z,19.50
2018-09-04T03:41:42.028Z,19.40
2018-09-04T03:44:16.153Z,19.40
2018-09-04T03:46:50.315Z,19.40
2018-09-04T03:49:24.487Z,19.50
2018-09-04T03:51:58.550Z,19.70
2018-09-04T03:54:32.561Z,20.00
2018-09-04T03:57:06.610Z,19.70
2018-09-04T03:59:40.522Z,19.40
2018-09-04T04:02:15.334Z,19.60
2018-09-04T04:04:49.398Z,19.60
2018-09-04T04:07:24.050Z,19.30
2018-09-04T04:09:57.960Z,19.30
2018-09-04T04:12:31.894Z,19.10
2018-09-04T04:15:06.705Z,19.50
2018-09-04T04:17:40.641Z,19.50
2018-09-04T04:20:14.565Z,19.70
2018-09-04T04:22:49.244Z,19.70
2018-09-04T04:25:23.137Z,19.60
2018-09-04T04:27:57.993Z,19.80
2018-09-04T04:30:32.023Z,19.80
2018-09-04T04:33:06.111Z,19.80
2018-09-04T04:35:40.203Z,20.00
2018-09-04T04:38:14.308Z,20.00
2018-09-04T04:40:48.434Z,20.10
2018-09-04T04:43:23.299Z,20.10
2018-09-04T04:45:57.438Z,20.10
2018-09-04T04:48:32.504Z,19.80
2018-09-04T04:51:07.484Z,19.20
2018-09-04T04:53:41.587Z,19.20
2018-09-04T04:56:15.711Z,19.50
2018-09-04T04:58:49.834Z,19.40
2018-09-04T05:01:24.774Z,19.30
2018-09-04T05:03:58.908Z,19.20
2018-09-04T05:06:33.191Z,19.50
2018-09-04T05:09:07.165Z,19.70
2018-09-04T05:11:41.434Z,19.50
2018-09-04T05:14:15.515Z,19.60
2018-09-04T05:16:49.693Z,19.60
2018-09-04T05:19:23.828Z,19.50
2018-09-04T05:21:58.028Z,19.60
2018-09-04T05:24:32.135Z,19.90
2018-09-04T05:27:06.419Z,20.00
2018-09-04T05:29:40.586Z,19.90
2018-09-04T05:32:14.946Z,19.90
2018-09-04T05:34:49.090Z,19.90
2018-09-04T05:37:23.280Z,20.00
2018-09-04T05:39:57.416Z,20.00
2018-09-04T05:42:31.650Z,20.00
2018-09-04T05:45:05.756Z,20.00
2018-09-04T05:47:40.915Z,19.60
2018-09-04T05:50:15.133Z,19.70
2018-09-04T05:52:49.517Z,19.70
2018-09-04T05:55:24.383Z,19.70
2018-09-04T05:57:58.633Z,19.70
2018-09-04T06:00:32.842Z,19.40
2018-09-04T06:03:07.470Z,19.30
2018-09-04T06:05:41.688Z,19.20
2018-09-04T06:08:16.621Z,19.30
2018-09-04T06:10:50.763Z,19.30
2018-09-04T06:13:24.746Z,19.50
2018-09-04T06:15:58.927Z,19.60
2018-09-04T06:18:33.074Z,19.50
2018-09-04T06:21:07.204Z,19.50
2018-09-04T06:23:41.263Z,19.70
2018-09-04T06:26:15.317Z,20.00
2018-09-04T06:28:50.247Z,20.40
2018-09-04T06:31:24.331Z,20.40
2018-09-04T06:33:58.572Z,20.60
2018-09-04T06:36:32.547Z,20.60
2018-09-04T06:39:06.838Z,20.40
2018-09-04T06:41:40.823Z,20.60
2018-09-04T06:44:14.946Z,20.60
2018-09-04T06:46:49.037Z,20.60
2018-09-04T06:49:23.167Z,20.30
2018-09-04T06:51:57.275Z,20.30
2018-09-04T06:54:31.447Z,20.30
2018-09-04T06:57:05.486Z,20.30
2018-09-04T06:59:39.534Z,20.10
2018-09-04T07:02:13.585Z,20.20
2018-09-04T07:04:47.486Z,20.10
2018-09-04T07:07:21.459Z,20.40
2018-09-04T07:09:55.475Z,20.80
2018-09-04T07:12:30.317Z,20.80
2018-09-04T07:15:04.860Z,20.80
2018-09-04T07:17:39.786Z,20.80
2018-09-04T07:20:14.610Z,21.00
2018-09-04T07:22:48.778Z,20.90
2018-09-04T07:25:23.587Z,20.90
2018-09-04T07:27:57.719Z,20.80
2018-09-04T07:30:31.775Z,20.90
2018-09-04T07:33:05.867Z,21.10
2018-09-04T07:35:39.982Z,21.20
2018-09-04T07:38:14.706Z,20.60
2018-09-04T07:40:48.847Z,20.60
2018-09-04T07:43:22.778Z,20.90
2018-09-04T07:45:57.588Z,21.40
2018-09-04T07:48:31.695Z,21.40
2018-09-04T07:51:05.787Z,21.60
2018-09-04T07:53:40.093Z,21.70
2018-09-04T07:56:14.033Z,21.90
2018-09-04T07:58:47.926Z,22.30
2018-09-04T08:01:21.931Z,22.20
2018-09-04T08:03:56.448Z,22.40
2018-09-04T08:06:30.392Z,22.50
2018-09-04T08:09:04.531Z,22.60
2018-09-04T08:11:38.494Z,22.60
2018-09-04T08:14:13.343Z,23.30
2018-09-04T08:16:47.530Z,23.20
2018-09-04T08:19:21.571Z,23.40
2018-09-04T08:21:56.278Z,22.90
2018-09-04T08:24:30.387Z,22.80
2018-09-04T08:27:05.526Z,22.30
2018-09-04T08:29:40.770Z,22.10
2018-09-04T08:32:14.750Z,22.00
2018-09-04T08:34:48.777Z,22.40
2018-09-04T08:37:22.920Z,22.40
2018-09-04T08:39:57.065Z,22.50
2018-09-04T08:42:30.930Z,22.40
2018-09-04T08:45:04.881Z,22.40
2018-09-04T08:47:38.929Z,22.30
2018-09-04T08:50:13.766Z,22.20
2018-09-04T08:52:47.664Z,22.20
2018-09-04T08:55:21.759Z,22.40
2018-09-04T08:57:55.589Z,22.70
2018-09-04T09:00:29.538Z,22.70
2018-09-04T09:03:03.601Z,23.20
2018-09-04T09:05:37.727Z,23.30
2018-09-04T09:08:11.662Z,23.10
2018-09-04T09:10:45.729Z,23.00
2018-09-04T09:13:20.516Z,22.40
2018-09-04T09:15:54.598Z,22.40
2018-09-04T09:18:28.694Z,22.30
2018-09-04T09:21:02.691Z,22.40
2018-09-04T09:23:36.708Z,22.70
2018-09-04T09:26:10.973Z,22.90
2018-09-04T09:28:44.926Z,23.30
2018-09-04T09:31:18.934Z,23.10
2018-09-04T09:33:53.072Z,23.30
2018-09-04T09:36:27.191Z,23.30
2018-09-04T09:39:01.306Z,23.30
2018-09-04T09:41:36.103Z,23.00
2018-09-04T09:44:10.198Z,23.00
2018-09-04T09:46:44.153Z,22.90
2018-09-04T09:49:18.149Z,23.10
2018-09-04T09:51:52.281Z,22.90
2018-09-04T09:54:26.393Z,22.90
2018-09-04T09:57:00.408Z,22.90
2018-09-04T09:59:34.424Z,23.30
2018-09-04T10:02:09.166Z,23.50
2018-09-04T10:04:43.229Z,23.40
2018-09-04T10:07:17.311Z,23.70
2018-09-04T10:09:52.209Z,23.90
2018-09-04T10:12:26.257Z,23.90
2018-09-04T10:15:00.180Z,23.90
2018-09-04T10:17:34.278Z,23.60
2018-09-04T10:20:08.409Z,23.40
2018-09-04T10:22:42.411Z,23.20
2018-09-04T10:25:16.585Z,23.20
2018-09-04T10:27:50.623Z,23.30
2018-09-04T10:30:24.705Z,23.30
2018-09-04T10:32:58.658Z,23.40
2018-09-04T10:35:32.749Z,23.30
2018-09-04T10:38:06.859Z,23.30
2018-09-04T10:40:41.084Z,23.20
2018-09-04T10:43:14.982Z,23.20
2018-09-04T10:45:49.101Z,23.70
2018-09-04T10:48:23.197Z,23.60
2018-09-04T10:50:58.010Z,24.00
2018-09-04T10:53:32.827Z,23.90
2018-09-04T10:56:06.967Z,23.80
2018-09-04T10:58:41.127Z,23.80
2018-09-04T11:01:15.274Z,23.90
2018-09-04T11:03:49.414Z,23.90
2018-09-04T11:06:23.538Z,24.00
2018-09-04T11:08:57.678Z,23.90
2018-09-04T11:11:31.575Z,23.90
2018-09-04T11:14:05.453Z,24.10
2018-09-04T11:16:40.798Z,24.20
2018-09-04T11:19:14.662Z,24.20
2018-09-04T11:21:48.739Z,24.30
2018-09-04T11:24:22.880Z,24.30
2018-09-04T11:26:58.390Z,24.30
2018-09-04T11:29:32.463Z,24.60
2018-09-04T11:32:06.914Z,24.50
2018-09-04T11:34:41.695Z,24.20
2018-09-04T11:37:15.704Z,24.30
2018-09-04T11:39:49.719Z,24.50
2018-09-04T11:42:24.532Z,25.00
2018-09-04T11:45:00.021Z,25.10
2018-09-04T11:47:34.073Z,25.10
2018-09-04T11:50:08.256Z,25.50
2018-09-04T11:52:42.237Z,25.60
2018-09-04T11:55:17.618Z,25.40
2018-09-04T11:57:51.649Z,25.40
2018-09-04T12:00:25.778Z,25.70
2018-09-04T12:02:59.809Z,25.90
2018-09-04T12:05:33.949Z,26.20
2018-09-04T12:08:07.997Z,26.00
2018-09-04T12:10:42.057Z,25.40
2018-09-04T12:13:16.099Z,25.70
2018-09-04T12:15:50.891Z,25.70
2018-09-04T12:18:25.016Z,25.70
2018-09-04T12:20:59.167Z,26.10
2018-09-04T12:23:33.267Z,26.30
2018-09-04T12:26:07.993Z,25.80
2018-09-04T12:28:41.965Z,25.80
2018-09-04T12:31:16.752Z,26.50
2018-09-04T12:33:50.647Z,26.40
2018-09-04T12:36:24.697Z,26.60
2018-09-04T12:38:58.702Z,27.00
2018-09-04T12:41:32.722Z,27.30
2018-09-04T12:44:06.785Z,27.70
2018-09-04T12:46:40.796Z,28.00
2018-09-04T12:49:15.637Z,27.90
2018-09-04T12:51:49.539Z,27.90
2018-09-04T12:54:23.642Z,28.10
2018-09-04T12:56:57.495Z,28.20
2018-09-04T12:59:31.530Z,28.20
2018-09-04T13:02:05.579Z,27.70
2018-09-04T13:04:39.727Z,27.30
2018-09-04T13:07:13.866Z,26.90
2018-09-04T13:09:47.954Z,26.80
2018-09-04T13:12:21.999Z,26.80
2018-09-04T13:14:56.114Z,26.80
2018-09-04T13:17:30.206Z,26.80
2018-09-04T13:20:04.342Z,26.70
2018-09-04T13:22:38.429Z,26.50
2018-09-04T13:25:12.521Z,26.50
2018-09-04T13:27:46.594Z,26.60
2018-09-04T13:30:21.382Z,27.10
2018-09-04T13:32:55.520Z,27.00
2018-09-04T13:35:29.610Z,27.30
2018-09-04T13:38:03.738Z,27.60
2018-09-04T13:40:37.752Z,27.80
2018-09-04T13:43:11.738Z,28.00
2018-09-04T13:45:45.752Z,28.10
2018-09-04T13:48:19.826Z,28.00
2018-09-04T13:50:53.836Z,28.00
2018-09-04T13:53:27.953Z,28.00
2018-09-04T13:56:02.065Z,28.40
2018-09-04T13:58:36.077Z,28.50
2018-09-04T14:01:10.275Z,28.90
2018-09-04T14:03:44.212Z,28.80
2018-09-04T14:06:18.232Z,28.80
2018-09-04T14:08:52.241Z,28.90
2018-09-04T14:11:26.281Z,28.80
2018-09-04T14:14:00.315Z,29.10
2018-09-04T14:16:43.155Z,29.60
2018-09-04T14:19:08.382Z,29.80
2018-09-04T14:21:42.466Z,29.60
2018-09-04T14:24:16.511Z,29.80
2018-09-04T14:26:50.527Z,29.50
2018-09-04T14:29:53.966Z,29.10
2018-09-04T14:31:58.542Z,28.70
2018-09-04T14:34:32.573Z,28.90
2018-09-04T14:37:06.734Z,28.80
2018-09-04T14:39:41.494Z,28.70
2018-09-04T14:42:15.425Z,28.70
2018-09-04T14:44:49.568Z,29.00
2018-09-04T14:47:23.679Z,28.90
2018-09-04T14:49:57.657Z,28.70
2018-09-04T14:52:31.685Z,28.90
2018-09-04T14:55:05.697Z,28.60
2018-09-04T14:57:39.661Z,28.90
2018-09-04T15:00:13.686Z,29.20
2018-09-04T15:02:47.785Z,28.90
2018-09-04T15:05:21.840Z,28.40
2018-09-04T15:07:55.823Z,28.30
2018-09-04T15:10:29.810Z,28.40
2018-09-04T15:13:04.567Z,27.90
2018-09-04T15:15:38.543Z,27.90
2018-09-04T15:18:12.586Z,28.00
2018-09-04T15:20:46.601Z,28.10
2018-09-04T15:23:20.591Z,28.10
2018-09-04T15:25:54.603Z,28.30
2018-09-04T15:28:28.717Z,28.30
2018-09-04T15:31:02.833Z,28.40
2018-09-04T15:33:36.860Z,28.60
2018-09-04T15:36:10.993Z,28.30
2018-09-04T15:38:45.089Z,28.20
2018-09-04T15:41:20.067Z,27.90
2018-09-04T15:43:54.758Z,27.90
2018-09-04T15:46:28.723Z,27.90
2018-09-04T15:49:02.637Z,28.00
2018-09-04T15:51:36.654Z,27.90
2018-09-04T15:54:10.774Z,27.80
2018-09-04T15:56:44.819Z,27.90
2018-09-04T15:59:18.800Z,27.80
2018-09-04T16:01:53.585Z,27.80
2018-09-04T16:04:27.434Z,27.80
2018-09-04T16:07:01.361Z,27.60
2018-09-04T16:09:35.390Z,27.50
2018-09-04T16:12:09.401Z,27.80
2018-09-04T16:14:43.430Z,27.70
2018-09-04T16:17:17.494Z,27.70
2018-09-04T16:19:51.457Z,27.90
2018-09-04T16:22:25.389Z,28.00
2018-09-04T16:24:59.439Z,27.60
2018-09-04T16:27:33.549Z,27.60
2018-09-04T16:30:07.602Z,27.10
2018-09-04T16:32:42.409Z,27.20
2018-09-04T16:35:16.393Z,27.20
2018-09-04T16:37:50.413Z,27.30
2018-09-04T16:40:24.520Z,27.40
2018-09-04T16:42:58.700Z,27.40
2018-09-04T16:45:33.806Z,27.40
2018-09-04T16:48:08.044Z,27.40
2018-09-04T16:50:41.941Z,27.40
2018-09-04T16:53:16.689Z,27.00
2018-09-04T16:55:51.386Z,26.90
2018-09-04T16:58:26.509Z,26.80
2018-09-04T17:01:00.525Z,26.80
2018-09-04T17:03:34.607Z,26.70
2018-09-04T17:06:09.967Z,26.40
2018-09-04T17:08:44.040Z,26.20
2018-09-04T17:11:18.117Z,26.40
2018-09-04T17:13:52.207Z,26.30
2018-09-04T17:16:26.237Z,26.20
2018-09-04T17:19:00.231Z,26.10
2018-09-04T17:21:34.217Z,26.10
2018-09-04T17:24:08.263Z,26.00
2018-09-04T17:26:42.352Z,25.70
2018-09-04T17:29:16.386Z,25.70
2018-09-04T17:31:50.485Z,25.80
2018-09-04T17:34:24.743Z,25.80
2018-09-04T17:36:59.050Z,25.70
2018-09-04T17:39:33.364Z,25.80
2018-09-04T17:42:07.734Z,25.70
2018-09-04T17:44:41.862Z,25.70
2018-09-04T17:47:15.773Z,25.90
2018-09-04T17:49:50.050Z,25.90
2018-09-04T17:52:24.248Z,26.00
2018-09-04T17:55:00.839Z,25.90
2018-09-04T17:57:34.887Z,25.90
2018-09-04T18:00:09.197Z,26.00
2018-09-04T18:02:43.270Z,26.00
2018-09-04T18:05:17.205Z,25.90
2018-09-04T18:07:51.273Z,25.90
2018-09-04T18:10:25.950Z,25.80
2018-09-04T18:13:00.155Z,25.80
2018-09-04T18:15:34.932Z,25.50
2018-09-04T18:18:10.226Z,25.50
2018-09-04T18:20:44.405Z,25.40
2018-09-04T18:23:18.367Z,25.30
2018-09-04T18:25:52.186Z,25.00
2018-09-04T18:28:26.828Z,24.50
2018-09-04T18:31:01.549Z,24.40
2018-09-04T18:33:36.295Z,24.30
2018-09-04T18:36:11.061Z,24.40
2018-09-04T18:38:45.646Z,24.40
2018-09-04T18:41:19.590Z,24.30
2018-09-04T18:43:53.481Z,24.20
2018-09-04T18:46:27.553Z,23.90
2018-09-04T18:49:01.705Z,23.90
2018-09-04T18:51:35.774Z,23.90
2018-09-04T18:54:09.831Z,23.90
2018-09-04T18:56:44.630Z,23.70
2018-09-04T18:59:19.365Z,23.80
2018-09-04T19:01:53.338Z,23.80
2018-09-04T19:04:27.361Z,23.80
2018-09-04T19:07:02.208Z,23.80
2018-09-04T19:09:36.858Z,23.70
2018-09-04T19:12:10.752Z,23.70
2018-09-04T19:14:44.751Z,23.70
2018-09-04T19:17:18.752Z,23.70
2018-09-04T19:19:52.774Z,23.70
2018-09-04T19:22:26.884Z,23.70
2018-09-04T19:25:00.887Z,23.70
2018-09-04T19:27:34.754Z,23.90
2018-09-04T19:30:08.857Z,24.10
2018-09-04T19:32:42.893Z,24.20
2018-09-04T19:35:18.404Z,24.30
2018-09-04T19:37:53.010Z,24.20
2018-09-04T19:40:27.016Z,24.00
2018-09-04T19:43:01.153Z,24.20
2018-09-04T19:45:35.149Z,24.20
2018-09-04T19:48:09.367Z,24.40
2018-09-04T19:50:44.191Z,24.30
2018-09-04T19:53:18.174Z,24.30
2018-09-04T19:55:52.410Z,23.90
2018-09-04T19:58:26.332Z,24.00
2018-09-04T20:01:00.455Z,23.90
2018-09-04T20:03:35.175Z,24.10
2018-09-04T20:06:09.146Z,24.10
2018-09-04T20:08:43.214Z,24.20
2018-09-04T20:11:17.555Z,24.20
2018-09-04T20:13:51.707Z,24.00
2018-09-04T20:16:25.857Z,24.10
2018-09-04T20:18:59.876Z,24.10
2018-09-04T20:21:36.511Z,24.00
2018-09-04T20:24:10.646Z,23.70
2018-09-04T20:26:44.701Z,23.70
2018-09-04T20:29:18.633Z,23.70
2018-09-04T20:31:52.799Z,23.70
2018-09-04T20:34:26.861Z,23.60
2018-09-04T20:37:00.883Z,23.60
2018-09-04T20:39:34.904Z,23.50
2018-09-04T20:42:08.947Z,23.40
2018-09-04T20:44:42.978Z,23.20
2018-09-04T20:47:17.021Z,23.10
2018-09-04T20:49:51.770Z,23.30
2018-09-04T20:52:25.674Z,23.20
2018-09-04T20:54:59.790Z,23.30
2018-09-04T20:57:33.069Z,23.40
2018-09-04T21:00:25.175Z,23.40
2018-09-04T21:03:17.315Z,23.50
2018-09-04T21:06:10.021Z,23.30
2018-09-04T21:08:44.361Z,23.30
2018-09-04T21:11:19.162Z,23.20
2018-09-04T21:13:53.069Z,23.20
2018-09-04T21:16:27.109Z,23.50
2018-09-04T21:19:01.095Z,23.50
2018-09-04T21:21:35.110Z,23.20
2018-09-04T21:24:09.942Z,23.10
2018-09-04T21:26:43.956Z,23.10
2018-09-04T21:29:18.031Z,23.30
2018-09-04T21:31:52.050Z,23.00
2018-09-04T21:34:25.919Z,23.00
2018-09-04T21:37:00.038Z,23.00
2018-09-04T21:39:33.995Z,22.90
2018-09-04T21:42:08.012Z,22.90
2018-09-04T21:44:52.419Z,22.80
2018-09-04T21:47:26.462Z,22.80
2018-09-04T21:50:00.540Z,22.90
2018-09-04T21:52:34.612Z,22.70
2018-09-04T21:55:08.708Z,22.60
2018-09-04T21:57:42.820Z,22.40
2018-09-04T22:00:16.842Z,22.30
2018-09-04T22:02:50.953Z,22.20
2018-09-04T22:05:24.989Z,22.10
2018-09-04T22:07:58.890Z,22.10
2018-09-04T22:10:32.877Z,22.10
2018-09-04T22:13:06.900Z,22.20
2018-09-04T22:15:40.930Z,22.30
2018-09-04T22:18:15.733Z,22.30
2018-09-04T22:20:50.374Z,22.30
2018-09-04T22:23:24.353Z,22.30
2018-09-04T22:25:58.393Z,22.50
2018-09-04T22:28:32.390Z,22.20
2018-09-04T22:31:07.148Z,22.10
2018-09-04T22:33:41.169Z,22.10
2018-09-04T22:36:15.282Z,22.00
2018-09-04T22:38:50.098Z,22.00
2018-09-04T22:41:24.048Z,22.00
2018-09-04T22:43:58.949Z,21.80
2018-09-04T22:46:33.085Z,21.60
2018-09-04T22:49:06.965Z,21.50
2018-09-04T22:51:40.965Z,21.50
2018-09-04T22:54:15.005Z,21.40
2018-09-04T22:56:49.854Z,21.30
2018-09-04T22:59:24.569Z,21.40
2018-09-04T23:01:58.664Z,21.40
2018-09-04T23:04:32.658Z,21.40
2018-09-04T23:07:06.753Z,21.40
2018-09-04T23:09:40.817Z,21.40
2018-09-04T23:12:14.885Z,21.40
2018-09-04T23:14:48.934Z,21.40
2018-09-04T23:17:22.913Z,21.20
2018-09-04T23:19:57.011Z,21.10
2018-09-04T23:22:30.977Z,21.10
2018-09-04T23:25:05.114Z,20.90
2018-09-04T23:27:39.154Z,20.90
2018-09-04T23:30:13.276Z,20.90
2018-09-04T23:32:47.286Z,21.00
2018-09-04T23:35:21.322Z,20.90
2018-09-04T23:37:55.314Z,20.90
2018-09-04T23:40:29.309Z,20.90
2018-09-04T23:43:03.326Z,20.80
2018-09-04T23:45:37.438Z,20.90
2018-09-04T23:48:11.473Z,20.80
2018-09-04T23:50:45.594Z,20.70
2018-09-04T23:53:43.121Z,20.60
2018-09-04T23:56:17.173Z,20.60
2018-09-04T23:58:51.263Z,20.80
